createdAt,value
2018-03-30T00:00:31.822Z,7.39
2018-03-30T00:01:32.089Z,7.4
2018-03-30T00:02:32.104Z,7.43
2018-03-30T00:03:31.612Z,7.4
2018-03-30T00:04:31.884Z,7.48
2018-03-30T00:05:31.643Z,7.39
2018-03-30T00:06:31.909Z,7.42
2018-03-30T00:07:32.190Z,7.43
2018-03-30T00:08:31.943Z,7.43
2018-03-30T00:09:32.245Z,7.39
2018-03-30T00:10:31.973Z,7.47
2018-03-30T00:11:32.250Z,7.45
2018-03-30T00:12:32.007Z,7.36
2018-03-30T00:13:32.282Z,7.47
2018-03-30T00:14:32.037Z,7.47
2018-03-30T00:15:32.051Z,7.42
2018-03-30T00:16:32.320Z,7.35
2018-03-30T00:17:32.351Z,7.31
2018-03-30T00:18:32.354Z,7.24
2018-03-30T00:19:32.371Z,7.2
2018-03-30T00:20:32.398Z,7.21
2018-03-30T00:21:32.143Z,7.23
2018-03-30T00:22:32.160Z,7.31
2018-03-30T00:23:31.923Z,7.31
2018-03-30T00:24:32.470Z,7.11
2018-03-30T00:25:32.462Z,7.18
2018-03-30T00:26:32.211Z,7.2
2018-03-30T00:27:32.494Z,7.25
2018-03-30T00:28:32.515Z,7.17
2018-03-30T00:29:32.277Z,7.31
2018-03-30T00:30:32.283Z,7.28
2018-03-30T00:31:32.304Z,7.17
2018-03-30T00:32:32.589Z,7.23
2018-03-30T00:33:32.658Z,7.23
2018-03-30T00:34:32.346Z,7.2
2018-03-30T00:35:32.665Z,7.28
2018-03-30T00:36:32.644Z,7.31
2018-03-30T00:37:32.402Z,7.29
2018-03-30T00:38:32.409Z,7.25
2018-03-30T00:39:32.429Z,7.32
2018-03-30T00:40:32.712Z,7.21
2018-03-30T00:41:32.457Z,7.2
2018-03-30T00:42:32.732Z,7.18
2018-03-30T00:43:32.483Z,7.17
2018-03-30T00:44:32.499Z,7.14
2018-03-30T00:45:32.521Z,7.05
2018-03-30T00:46:32.784Z,7.11
2018-03-30T00:47:32.562Z,7.1
2018-03-30T00:48:32.560Z,7.07
2018-03-30T00:49:32.836Z,7.23
2018-03-30T00:50:32.846Z,7.21
2018-03-30T00:51:32.605Z,7.17
2018-03-30T00:52:32.934Z,7.11
2018-03-30T00:53:32.653Z,6.95
2018-03-30T00:54:32.917Z,6.89
2018-03-30T00:55:32.423Z,6.85
2018-03-30T00:56:32.943Z,6.88
2018-03-30T00:57:32.985Z,6.87
2018-03-30T00:58:32.977Z,6.89
2018-03-30T00:59:33.008Z,7
2018-03-30T01:00:33.002Z,6.93
2018-03-30T01:01:32.760Z,6.92
2018-03-30T01:02:32.778Z,6.92
2018-03-30T01:03:33.055Z,6.95
2018-03-30T01:04:32.808Z,6.95
2018-03-30T01:05:32.820Z,7.02
2018-03-30T01:06:33.098Z,6.97
2018-03-30T01:07:32.863Z,7.02
2018-03-30T01:08:32.614Z,7.06
2018-03-30T01:09:33.138Z,6.96
2018-03-30T01:10:32.897Z,6.96
2018-03-30T01:11:33.171Z,6.97
2018-03-30T01:12:33.185Z,7.11
2018-03-30T01:13:32.944Z,7.11
2018-03-30T01:14:33.224Z,7.02
2018-03-30T01:15:32.972Z,7.11
2018-03-30T01:16:32.997Z,6.95
2018-03-30T01:17:33.266Z,6.97
2018-03-30T01:18:33.018Z,6.95
2018-03-30T01:19:33.036Z,6.89
2018-03-30T01:20:33.314Z,6.87
2018-03-30T01:21:33.332Z,6.88
2018-03-30T01:22:33.335Z,7.02
2018-03-30T01:23:33.408Z,6.88
2018-03-30T01:24:32.857Z,6.95
2018-03-30T01:25:33.384Z,6.89
2018-03-30T01:26:33.140Z,6.92
2018-03-30T01:27:33.155Z,6.77
2018-03-30T01:28:33.239Z,6.81
2018-03-30T01:29:33.460Z,6.84
2018-03-30T01:30:33.504Z,6.69
2018-03-30T01:31:33.472Z,6.7
2018-03-30T01:32:33.234Z,6.7
2018-03-30T01:33:33.510Z,6.67
2018-03-30T01:34:33.524Z,6.75
2018-03-30T01:35:33.533Z,6.77
2018-03-30T01:36:33.551Z,6.69
2018-03-30T01:37:33.561Z,6.67
2018-03-30T01:38:33.324Z,6.64
2018-03-30T01:39:33.085Z,6.75
2018-03-30T01:40:33.614Z,6.79
2018-03-30T01:41:33.628Z,6.75
2018-03-30T01:42:33.638Z,6.77
2018-03-30T01:43:33.709Z,6.74
2018-03-30T01:44:33.417Z,6.75
2018-03-30T01:45:33.685Z,6.69
2018-03-30T01:46:33.450Z,6.75
2018-03-30T01:47:33.701Z,6.75
2018-03-30T01:48:33.748Z,6.69
2018-03-30T01:49:33.488Z,6.67
2018-03-30T01:50:33.757Z,6.7
2018-03-30T01:51:33.772Z,6.7
2018-03-30T01:52:33.775Z,6.79
2018-03-30T01:53:33.794Z,6.82
2018-03-30T01:54:33.303Z,6.74
2018-03-30T01:55:33.578Z,6.7
2018-03-30T01:56:33.837Z,6.64
2018-03-30T01:57:33.902Z,6.54
2018-03-30T01:58:33.875Z,6.59
2018-03-30T01:59:33.633Z,6.59
2018-03-30T02:00:33.909Z,6.57
2018-03-30T02:01:33.410Z,6.62
2018-03-30T02:02:33.942Z,6.54
2018-03-30T02:03:33.969Z,6.52
2018-03-30T02:04:33.720Z,6.64
2018-03-30T02:05:33.738Z,6.62
2018-03-30T02:06:34.004Z,6.67
2018-03-30T02:07:33.510Z,6.75
2018-03-30T02:08:34.040Z,6.84
2018-03-30T02:09:34.056Z,6.74
2018-03-30T02:10:33.554Z,6.88
2018-03-30T02:11:33.822Z,6.77
2018-03-30T02:12:34.090Z,6.75
2018-03-30T02:13:34.119Z,6.74
2018-03-30T02:14:34.127Z,6.81
2018-03-30T02:15:34.141Z,6.75
2018-03-30T02:16:33.898Z,6.79
2018-03-30T02:17:33.896Z,6.87
2018-03-30T02:18:34.162Z,6.77
2018-03-30T02:19:34.184Z,6.87
2018-03-30T02:20:34.211Z,6.75
2018-03-30T02:21:34.212Z,6.82
2018-03-30T02:22:34.230Z,6.69
2018-03-30T02:23:33.990Z,6.75
2018-03-30T02:24:34.337Z,6.67
2018-03-30T02:25:33.782Z,6.75
2018-03-30T02:26:34.302Z,6.74
2018-03-30T02:27:34.324Z,6.72
2018-03-30T02:28:34.090Z,6.75
2018-03-30T02:29:33.839Z,6.7
2018-03-30T02:30:33.860Z,6.67
2018-03-30T02:31:34.128Z,6.69
2018-03-30T02:32:34.402Z,6.6
2018-03-30T02:33:34.425Z,6.56
2018-03-30T02:34:34.425Z,6.48
2018-03-30T02:35:34.440Z,6.78
2018-03-30T02:36:33.949Z,6.77
2018-03-30T02:37:34.216Z,6.67
2018-03-30T02:38:34.513Z,6.72
2018-03-30T02:39:34.514Z,6.72
2018-03-30T02:40:34.523Z,6.7
2018-03-30T02:41:34.284Z,6.72
2018-03-30T02:42:34.544Z,6.69
2018-03-30T02:43:34.574Z,6.67
2018-03-30T02:44:34.640Z,6.74
2018-03-30T02:45:34.594Z,6.74
2018-03-30T02:46:34.610Z,6.64
2018-03-30T02:47:34.600Z,6.7
2018-03-30T02:48:34.624Z,6.74
2018-03-30T02:49:34.992Z,6.67
2018-03-30T02:50:34.677Z,6.67
2018-03-30T02:51:34.448Z,6.81
2018-03-30T02:52:34.708Z,6.67
2018-03-30T02:53:34.729Z,6.79
2018-03-30T02:54:34.760Z,6.77
2018-03-30T02:55:34.491Z,6.74
2018-03-30T02:56:34.768Z,6.75
2018-03-30T02:57:34.825Z,6.77
2018-03-30T02:58:34.279Z,6.74
2018-03-30T02:59:34.805Z,6.77
2018-03-30T03:00:34.825Z,6.95
2018-03-30T03:01:34.584Z,6.82
2018-03-30T03:02:34.848Z,6.89
2018-03-30T03:03:34.892Z,6.89
2018-03-30T03:04:34.627Z,6.77
2018-03-30T03:05:34.755Z,6.85
2018-03-30T03:06:34.656Z,6.74
2018-03-30T03:07:34.670Z,6.79
2018-03-30T03:08:34.954Z,6.72
2018-03-30T03:09:34.959Z,6.67
2018-03-30T03:10:34.722Z,6.69
2018-03-30T03:11:34.999Z,6.7
2018-03-30T03:12:34.745Z,6.74
2018-03-30T03:13:34.760Z,6.72
2018-03-30T03:14:34.777Z,6.78
2018-03-30T03:15:35.061Z,6.69
2018-03-30T03:16:34.803Z,6.48
2018-03-30T03:17:35.088Z,6.52
2018-03-30T03:18:35.088Z,6.57
2018-03-30T03:19:35.103Z,6.69
2018-03-30T03:20:34.864Z,6.67
2018-03-30T03:21:35.142Z,6.66
2018-03-30T03:22:35.150Z,6.54
2018-03-30T03:23:35.171Z,6.63
2018-03-30T03:24:34.984Z,6.54
2018-03-30T03:25:35.206Z,6.66
2018-03-30T03:26:35.224Z,6.72
2018-03-30T03:27:35.178Z,6.7
2018-03-30T03:28:34.990Z,6.81
2018-03-30T03:29:35.257Z,6.77
2018-03-30T03:30:35.282Z,6.75
2018-03-30T03:31:35.029Z,6.79
2018-03-30T03:32:35.300Z,6.92
2018-03-30T03:33:35.303Z,6.87
2018-03-30T03:34:35.075Z,6.92
2018-03-30T03:35:35.340Z,7.1
2018-03-30T03:36:35.371Z,7.1
2018-03-30T03:37:35.379Z,7.11
2018-03-30T03:38:35.140Z,7.13
2018-03-30T03:39:35.156Z,7.13
2018-03-30T03:40:35.172Z,7.17
2018-03-30T03:41:35.492Z,7.25
2018-03-30T03:42:35.213Z,7.28
2018-03-30T03:43:35.217Z,7.32
2018-03-30T03:44:35.230Z,7.38
2018-03-30T03:45:35.501Z,7.42
2018-03-30T03:46:35.267Z,7.48
2018-03-30T03:47:35.279Z,7.42
2018-03-30T03:48:35.291Z,7.39
2018-03-30T03:49:35.592Z,7.47
2018-03-30T03:50:35.580Z,7.43
2018-03-30T03:51:35.339Z,7.53
2018-03-30T03:52:35.632Z,7.51
2018-03-30T03:53:35.627Z,7.58
2018-03-30T03:54:35.398Z,7.6
2018-03-30T03:55:35.656Z,7.73
2018-03-30T03:56:35.711Z,7.63
2018-03-30T03:57:35.434Z,7.61
2018-03-30T03:58:35.698Z,7.66
2018-03-30T03:59:35.722Z,7.72
2018-03-30T04:00:35.222Z,7.83
2018-03-30T04:01:35.750Z,7.83
2018-03-30T04:02:35.511Z,7.85
2018-03-30T04:03:35.523Z,7.9
2018-03-30T04:04:35.563Z,7.83
2018-03-30T04:05:35.550Z,7.87
2018-03-30T04:06:35.821Z,7.83
2018-03-30T04:07:35.837Z,7.93
2018-03-30T04:08:35.851Z,7.9
2018-03-30T04:09:35.874Z,7.88
2018-03-30T04:10:35.884Z,7.83
2018-03-30T04:11:35.903Z,7.97
2018-03-30T04:12:35.914Z,7.95
2018-03-30T04:13:35.933Z,7.9
2018-03-30T04:14:35.439Z,7.98
2018-03-30T04:15:35.964Z,7.98
2018-03-30T04:16:35.751Z,8.08
2018-03-30T04:17:36.005Z,7.98
2018-03-30T04:18:36.013Z,7.93
2018-03-30T04:19:36.034Z,8.06
2018-03-30T04:20:35.792Z,8
2018-03-30T04:21:35.813Z,8.1
2018-03-30T04:22:35.566Z,8.13
2018-03-30T04:23:36.099Z,8.13
2018-03-30T04:24:36.108Z,8.1
2018-03-30T04:25:36.118Z,8.15
2018-03-30T04:26:36.170Z,7.98
2018-03-30T04:27:36.147Z,8.03
2018-03-30T04:28:35.910Z,8.06
2018-03-30T04:29:36.179Z,8.05
2018-03-30T04:30:36.215Z,8.1
2018-03-30T04:31:35.710Z,8.05
2018-03-30T04:32:36.229Z,8.1
2018-03-30T04:33:35.995Z,8
2018-03-30T04:34:35.757Z,8.15
2018-03-30T04:35:36.280Z,8.13
2018-03-30T04:36:36.051Z,8.12
2018-03-30T04:37:36.311Z,8.06
2018-03-30T04:38:36.383Z,7.97
2018-03-30T04:39:36.088Z,8
2018-03-30T04:40:36.404Z,8.09
2018-03-30T04:41:36.119Z,8.06
2018-03-30T04:42:36.133Z,8.1
2018-03-30T04:43:36.413Z,8.06
2018-03-30T04:44:36.422Z,8.13
2018-03-30T04:45:36.435Z,8.19
2018-03-30T04:46:36.197Z,8.1
2018-03-30T04:47:36.468Z,8.16
2018-03-30T04:48:36.491Z,8.23
2018-03-30T04:49:36.241Z,8.13
2018-03-30T04:50:36.513Z,8.18
2018-03-30T04:51:36.275Z,8.15
2018-03-30T04:52:36.547Z,8.15
2018-03-30T04:53:36.561Z,8.12
2018-03-30T04:54:36.576Z,8.15
2018-03-30T04:55:36.595Z,8.12
2018-03-30T04:56:36.353Z,8.09
2018-03-30T04:57:36.622Z,7.94
2018-03-30T04:58:36.696Z,7.83
2018-03-30T04:59:36.399Z,7.72
2018-03-30T05:00:36.414Z,7.61
2018-03-30T05:01:36.433Z,7.77
2018-03-30T05:02:36.194Z,7.94
2018-03-30T05:03:36.871Z,7.9
2018-03-30T05:04:36.734Z,7.9
2018-03-30T05:05:36.495Z,8.05
2018-03-30T05:06:36.263Z,7.88
2018-03-30T05:07:36.279Z,7.85
2018-03-30T05:08:36.547Z,7.87
2018-03-30T05:09:36.811Z,7.9
2018-03-30T05:10:36.829Z,7.91
2018-03-30T05:11:36.593Z,7.91
2018-03-30T05:12:36.351Z,8.01
2018-03-30T05:13:36.924Z,7.93
2018-03-30T05:14:36.384Z,7.93
2018-03-30T05:15:36.398Z,7.88
2018-03-30T05:16:37.051Z,7.95
2018-03-30T05:17:36.949Z,7.95
2018-03-30T05:18:36.705Z,7.91
2018-03-30T05:19:36.729Z,7.7
2018-03-30T05:20:36.743Z,7.76
2018-03-30T05:21:36.774Z,7.73
2018-03-30T05:22:36.511Z,7.57
2018-03-30T05:23:36.524Z,7.61
2018-03-30T05:24:37.050Z,7.66
2018-03-30T05:25:37.069Z,7.7
2018-03-30T05:26:37.084Z,7.75
2018-03-30T05:27:37.098Z,7.7
2018-03-30T05:28:37.160Z,7.91
2018-03-30T05:29:36.874Z,7.88
2018-03-30T05:30:37.145Z,7.88
2018-03-30T05:31:36.649Z,7.87
2018-03-30T05:32:36.919Z,7.93
2018-03-30T05:33:37.193Z,7.61
2018-03-30T05:34:36.997Z,7.72
2018-03-30T05:35:37.228Z,7.63
2018-03-30T05:36:37.264Z,7.57
2018-03-30T05:37:37.258Z,7.54
2018-03-30T05:38:37.016Z,7.53
2018-03-30T05:39:37.035Z,7.61
2018-03-30T05:40:37.303Z,7.69
2018-03-30T05:41:37.318Z,7.82
2018-03-30T05:42:37.339Z,7.87
2018-03-30T05:43:36.891Z,7.73
2018-03-30T05:44:37.114Z,7.53
2018-03-30T05:45:37.126Z,7.56
2018-03-30T05:46:37.393Z,7.45
2018-03-30T05:47:37.411Z,7.51
2018-03-30T05:48:37.470Z,7.63
2018-03-30T05:49:37.183Z,7.67
2018-03-30T05:50:37.198Z,7.75
2018-03-30T05:51:37.217Z,7.75
2018-03-30T05:52:37.232Z,7.83
2018-03-30T05:53:37.245Z,7.82
2018-03-30T05:54:37.262Z,7.8
2018-03-30T05:55:37.030Z,7.69
2018-03-30T05:56:37.547Z,7.7
2018-03-30T05:57:37.565Z,7.56
2018-03-30T05:58:37.070Z,7.53
2018-03-30T05:59:37.595Z,7.45
2018-03-30T06:00:37.614Z,7.5
2018-03-30T06:01:37.631Z,7.48
2018-03-30T06:02:37.657Z,7.53
2018-03-30T06:03:37.707Z,7.48
2018-03-30T06:04:37.422Z,7.43
2018-03-30T06:05:37.694Z,7.42
2018-03-30T06:06:37.714Z,7.39
2018-03-30T06:07:37.469Z,7.25
2018-03-30T06:08:37.741Z,7.03
2018-03-30T06:09:37.772Z,6.84
2018-03-30T06:10:37.517Z,6.85
2018-03-30T06:11:37.801Z,6.96
2018-03-30T06:12:37.804Z,6.97
2018-03-30T06:13:37.570Z,7.1
2018-03-30T06:14:37.591Z,7.2
2018-03-30T06:15:37.580Z,7.28
2018-03-30T06:16:37.843Z,7.28
2018-03-30T06:17:37.358Z,7.29
2018-03-30T06:18:37.674Z,7.23
2018-03-30T06:19:37.642Z,7.38
2018-03-30T06:20:37.654Z,7.18
2018-03-30T06:21:37.945Z,7.45
2018-03-30T06:22:37.449Z,7.48
2018-03-30T06:23:37.984Z,7.43
2018-03-30T06:24:37.985Z,7.6
2018-03-30T06:25:37.748Z,7.88
2018-03-30T06:26:37.766Z,7.97
2018-03-30T06:27:37.779Z,7.98
2018-03-30T06:28:37.798Z,7.88
2018-03-30T06:29:37.809Z,8.05
2018-03-30T06:30:37.824Z,8.15
2018-03-30T06:31:37.845Z,8.3
2018-03-30T06:32:37.601Z,8.34
2018-03-30T06:33:38.179Z,8.46
2018-03-30T06:34:37.891Z,8.6
2018-03-30T06:35:37.917Z,8.69
2018-03-30T06:36:38.170Z,8.66
2018-03-30T06:37:37.942Z,8.82
2018-03-30T06:38:38.208Z,8.81
2018-03-30T06:39:37.969Z,8.79
2018-03-30T06:40:37.987Z,8.81
2018-03-30T06:41:38.257Z,8.95
2018-03-30T06:42:38.026Z,8.97
2018-03-30T06:43:38.286Z,9.02
2018-03-30T06:44:38.314Z,9.08
2018-03-30T06:45:38.062Z,9.03
2018-03-30T06:46:38.081Z,9.06
2018-03-30T06:47:38.095Z,8.99
2018-03-30T06:48:38.163Z,9.11
2018-03-30T06:49:38.134Z,9.1
2018-03-30T06:50:38.403Z,9.1
2018-03-30T06:51:38.168Z,9.34
2018-03-30T06:52:38.438Z,9.36
2018-03-30T06:53:38.350Z,9.43
2018-03-30T06:54:38.470Z,9.51
2018-03-30T06:55:38.501Z,9.61
2018-03-30T06:56:38.250Z,9.68
2018-03-30T06:57:38.275Z,9.8
2018-03-30T06:58:38.531Z,9.73
2018-03-30T06:59:38.296Z,9.84
2018-03-30T07:00:38.316Z,9.84
2018-03-30T07:01:38.329Z,9.83
2018-03-30T07:02:38.360Z,9.91
2018-03-30T07:03:38.368Z,9.99
2018-03-30T07:04:38.387Z,10.01
2018-03-30T07:05:38.649Z,10.1
2018-03-30T07:06:38.176Z,9.98
2018-03-30T07:07:38.432Z,10.07
2018-03-30T07:08:38.453Z,10.12
2018-03-30T07:09:38.723Z,10.1
2018-03-30T07:10:38.533Z,10.23
2018-03-30T07:11:38.502Z,10.26
2018-03-30T07:12:38.513Z,10.37
2018-03-30T07:13:38.535Z,10.31
2018-03-30T07:14:38.553Z,10.35
2018-03-30T07:15:38.566Z,10.3
2018-03-30T07:16:38.837Z,10.3
2018-03-30T07:17:38.353Z,10.19
2018-03-30T07:18:38.872Z,10.3
2018-03-30T07:19:38.893Z,10.42
2018-03-30T07:20:38.912Z,10.33
2018-03-30T07:21:38.670Z,10.34
2018-03-30T07:22:39.085Z,10.35
2018-03-30T07:23:38.957Z,10.4
2018-03-30T07:24:38.465Z,10.53
2018-03-30T07:25:38.789Z,10.57
2018-03-30T07:26:39.013Z,10.76
2018-03-30T07:27:39.025Z,10.9
2018-03-30T07:28:39.151Z,10.82
2018-03-30T07:29:39.061Z,10.93
2018-03-30T07:30:38.873Z,10.87
2018-03-30T07:31:38.585Z,11
2018-03-30T07:32:38.860Z,11
2018-03-30T07:33:39.137Z,11
2018-03-30T07:34:38.904Z,11.12
2018-03-30T07:35:39.165Z,11.07
2018-03-30T07:36:39.186Z,11
2018-03-30T07:37:39.214Z,11.07
2018-03-30T07:38:39.217Z,11.05
2018-03-30T07:39:39.238Z,11.12
2018-03-30T07:40:39.001Z,11.12
2018-03-30T07:41:39.019Z,11.15
2018-03-30T07:42:39.293Z,11.02
2018-03-30T07:43:38.809Z,10.87
2018-03-30T07:44:39.074Z,10.89
2018-03-30T07:45:39.145Z,10.93
2018-03-30T07:46:39.111Z,10.93
2018-03-30T07:47:39.139Z,11.05
2018-03-30T07:48:39.146Z,10.92
2018-03-30T07:49:38.908Z,10.96
2018-03-30T07:50:39.188Z,10.81
2018-03-30T07:51:39.200Z,10.92
2018-03-30T07:52:39.220Z,10.96
2018-03-30T07:53:39.472Z,10.9
2018-03-30T07:54:39.241Z,10.75
2018-03-30T07:55:39.256Z,10.49
2018-03-30T07:56:39.290Z,10.76
2018-03-30T07:57:39.674Z,10.69
2018-03-30T07:58:39.566Z,10.86
2018-03-30T07:59:39.602Z,10.94
2018-03-30T08:00:39.145Z,10.94
2018-03-30T08:01:39.364Z,10.94
2018-03-30T08:02:39.636Z,10.96
2018-03-30T08:03:39.730Z,10.99
2018-03-30T08:04:39.168Z,11
2018-03-30T08:05:39.692Z,11.07
2018-03-30T08:06:39.704Z,11.19
2018-03-30T08:07:39.481Z,11.29
2018-03-30T08:08:39.505Z,11.44
2018-03-30T08:09:39.775Z,11.4
2018-03-30T08:10:39.286Z,11.08
2018-03-30T08:11:39.815Z,11.15
2018-03-30T08:12:39.827Z,11.08
2018-03-30T08:13:39.854Z,11.1
2018-03-30T08:14:39.867Z,11.07
2018-03-30T08:15:39.683Z,11.07
2018-03-30T08:16:39.906Z,11.19
2018-03-30T08:17:39.672Z,11.41
2018-03-30T08:18:39.685Z,11.5
2018-03-30T08:19:40.027Z,11.57
2018-03-30T08:20:39.988Z,11.62
2018-03-30T08:21:39.741Z,11.77
2018-03-30T08:22:39.763Z,12
2018-03-30T08:23:40.035Z,12.1
2018-03-30T08:24:39.797Z,12.15
2018-03-30T08:25:40.072Z,12.24
2018-03-30T08:26:40.092Z,12.17
2018-03-30T08:27:39.879Z,12.2
2018-03-30T08:28:39.869Z,12.35
2018-03-30T08:29:39.891Z,12.45
2018-03-30T08:30:40.226Z,12.6
2018-03-30T08:31:40.345Z,12.58
2018-03-30T08:32:39.945Z,12.61
2018-03-30T08:33:40.226Z,12.76
2018-03-30T08:34:39.985Z,12.83
2018-03-30T08:35:40.002Z,12.86
2018-03-30T08:36:40.275Z,12.8
2018-03-30T08:37:40.052Z,12.9
2018-03-30T08:38:40.302Z,12.8
2018-03-30T08:39:40.338Z,12.87
2018-03-30T08:40:40.332Z,12.98
2018-03-30T08:41:40.355Z,12.87
2018-03-30T08:42:40.376Z,12.85
2018-03-30T08:43:40.392Z,12.8
2018-03-30T08:44:40.413Z,12.78
2018-03-30T08:45:40.484Z,12.91
2018-03-30T08:46:40.449Z,12.91
2018-03-30T08:47:40.480Z,12.79
2018-03-30T08:48:40.488Z,12.75
2018-03-30T08:49:40.256Z,12.79
2018-03-30T08:50:40.530Z,12.97
2018-03-30T08:51:40.297Z,12.94
2018-03-30T08:52:40.323Z,12.86
2018-03-30T08:53:40.349Z,12.79
2018-03-30T08:54:40.628Z,12.9
2018-03-30T08:55:40.387Z,12.95
2018-03-30T08:56:40.663Z,12.85
2018-03-30T08:57:40.447Z,12.94
2018-03-30T08:58:40.441Z,12.91
2018-03-30T08:59:40.769Z,12.97
2018-03-30T09:00:40.538Z,12.98
2018-03-30T09:01:40.761Z,13.04
2018-03-30T09:02:40.777Z,13.12
2018-03-30T09:03:40.791Z,13.18
2018-03-30T09:04:40.834Z,13.04
2018-03-30T09:05:40.834Z,12.98
2018-03-30T09:06:40.599Z,13.13
2018-03-30T09:07:40.879Z,13.16
2018-03-30T09:08:40.899Z,13.16
2018-03-30T09:09:40.659Z,13.15
2018-03-30T09:10:40.677Z,13.16
2018-03-30T09:11:40.958Z,13.25
2018-03-30T09:12:40.718Z,13.3
2018-03-30T09:13:40.991Z,13.08
2018-03-30T09:14:40.761Z,13.01
2018-03-30T09:15:41.078Z,13
2018-03-30T09:16:40.801Z,12.79
2018-03-30T09:17:41.068Z,12.85
2018-03-30T09:18:41.095Z,13
2018-03-30T09:19:41.107Z,13.09
2018-03-30T09:20:40.867Z,13.25
2018-03-30T09:21:41.143Z,13.44
2018-03-30T09:22:40.908Z,13.39
2018-03-30T09:23:40.926Z,13.3
2018-03-30T09:24:41.207Z,13.39
2018-03-30T09:25:40.966Z,13.7
2018-03-30T09:26:40.988Z,13.75
2018-03-30T09:27:41.007Z,13.79
2018-03-30T09:28:41.285Z,13.86
2018-03-30T09:29:40.795Z,14.07
2018-03-30T09:30:40.869Z,14.1
2018-03-30T09:31:41.088Z,14.25
2018-03-30T09:32:41.149Z,14.25
2018-03-30T09:33:41.435Z,14.35
2018-03-30T09:34:41.152Z,14.54
2018-03-30T09:35:41.171Z,14.3
2018-03-30T09:36:41.449Z,14.6
2018-03-30T09:37:41.220Z,14.78
2018-03-30T09:38:41.489Z,14.94
2018-03-30T09:39:41.004Z,15.06
2018-03-30T09:40:41.531Z,15.33
2018-03-30T09:41:41.549Z,15.46
2018-03-30T09:42:41.576Z,15.52
2018-03-30T09:43:41.604Z,15.43
2018-03-30T09:44:41.621Z,15.33
2018-03-30T09:45:41.644Z,15.07
2018-03-30T09:46:41.723Z,15.03
2018-03-30T09:47:41.744Z,14.88
2018-03-30T09:48:41.446Z,14.88
2018-03-30T09:49:41.470Z,14.88
2018-03-30T09:50:41.744Z,14.96
2018-03-30T09:51:41.765Z,14.82
2018-03-30T09:52:41.536Z,14.72
2018-03-30T09:53:41.805Z,14.72
2018-03-30T09:54:41.572Z,14.73
2018-03-30T09:55:41.594Z,14.77
2018-03-30T09:56:41.892Z,14.58
2018-03-30T09:57:41.638Z,14.58
2018-03-30T09:58:41.659Z,14.68
2018-03-30T09:59:41.685Z,14.81
2018-03-30T10:00:41.964Z,14.86
2018-03-30T10:01:41.723Z,14.92
2018-03-30T10:02:41.893Z,15.06
2018-03-30T10:03:42.013Z,15.04
2018-03-30T10:04:42.038Z,15.14
2018-03-30T10:05:42.061Z,15.1
2018-03-30T10:06:41.833Z,15.03
2018-03-30T10:07:42.147Z,14.55
2018-03-30T10:08:42.136Z,14.47
2018-03-30T10:09:42.147Z,14.35
2018-03-30T10:10:41.654Z,14.37
2018-03-30T10:11:42.224Z,14.2
2018-03-30T10:12:41.964Z,14.23
2018-03-30T10:13:41.972Z,14.33
2018-03-30T10:14:42.242Z,14.36
2018-03-30T10:15:42.009Z,14.5
2018-03-30T10:16:42.290Z,14.32
2018-03-30T10:17:42.362Z,14.51
2018-03-30T10:18:42.330Z,14.45
2018-03-30T10:19:42.349Z,14.45
2018-03-30T10:20:42.384Z,14.59
2018-03-30T10:21:42.140Z,14.89
2018-03-30T10:22:42.162Z,15.19
2018-03-30T10:23:42.182Z,15.59
2018-03-30T10:24:42.204Z,15.75
2018-03-30T10:25:42.488Z,16.23
2018-03-30T10:26:42.253Z,16.58
2018-03-30T10:27:42.269Z,16.72
2018-03-30T10:28:42.551Z,16.91
2018-03-30T10:29:42.322Z,17.29
2018-03-30T10:30:42.340Z,17.38
2018-03-30T10:31:42.629Z,17.76
2018-03-30T10:32:42.223Z,17.97
2018-03-30T10:33:42.410Z,18.13
2018-03-30T10:34:42.435Z,18.16
2018-03-30T10:35:42.732Z,18.08
2018-03-30T10:36:42.486Z,18.04
2018-03-30T10:37:42.764Z,18.2
2018-03-30T10:38:42.280Z,18.05
2018-03-30T10:39:42.811Z,17.71
2018-03-30T10:40:42.327Z,17.44
2018-03-30T10:41:42.863Z,17.42
2018-03-30T10:42:42.889Z,17.3
2018-03-30T10:43:42.668Z,17.49
2018-03-30T10:44:42.679Z,17.74
2018-03-30T10:45:42.705Z,18.03
2018-03-30T10:46:42.980Z,18.04
2018-03-30T10:47:42.804Z,18.29
2018-03-30T10:48:42.835Z,18.22
2018-03-30T10:49:43.061Z,18.45
2018-03-30T10:50:42.822Z,18.44
2018-03-30T10:51:43.101Z,18.49
2018-03-30T10:52:43.228Z,18.5
2018-03-30T10:53:43.149Z,18.63
2018-03-30T10:54:43.234Z,18.47
2018-03-30T10:55:42.951Z,18.34
2018-03-30T10:56:42.966Z,18.34
2018-03-30T10:57:42.993Z,18.44
2018-03-30T10:58:43.271Z,18.45
2018-03-30T10:59:43.057Z,18.47
2018-03-30T11:00:43.324Z,18.75
2018-03-30T11:01:43.348Z,18.77
2018-03-30T11:02:43.172Z,18.6
2018-03-30T11:03:43.401Z,18.41
2018-03-30T11:04:43.424Z,18.19
2018-03-30T11:05:43.192Z,18.18
2018-03-30T11:06:43.220Z,18.22
2018-03-30T11:07:43.492Z,18.25
2018-03-30T11:08:43.518Z,18.31
2018-03-30T11:09:43.293Z,18.44
2018-03-30T11:10:43.049Z,18.65
2018-03-30T11:11:43.690Z,18.83
2018-03-30T11:12:43.353Z,18.75
2018-03-30T11:13:43.637Z,18.88
2018-03-30T11:14:43.152Z,18.73
2018-03-30T11:15:43.674Z,18.71
2018-03-30T11:16:43.452Z,18.77
2018-03-30T11:17:43.526Z,19.09
2018-03-30T11:18:43.780Z,19.16
2018-03-30T11:19:43.544Z,19.12
2018-03-30T11:20:43.832Z,19.29
2018-03-30T11:21:43.864Z,19.22
2018-03-30T11:22:43.897Z,19.11
2018-03-30T11:23:43.645Z,19.18
2018-03-30T11:24:44.030Z,19.27
2018-03-30T11:25:43.438Z,19.59
2018-03-30T11:26:43.972Z,19.86
2018-03-30T11:27:43.747Z,20.07
2018-03-30T11:28:43.769Z,20.31
2018-03-30T11:29:43.796Z,20.25
2018-03-30T11:30:44.079Z,20.52
2018-03-30T11:31:44.099Z,20.59
2018-03-30T11:32:43.924Z,20.75
2018-03-30T11:33:44.156Z,20.74
2018-03-30T11:34:43.928Z,20.87
2018-03-30T11:35:44.205Z,21.03
2018-03-30T11:36:43.980Z,21.33
2018-03-30T11:37:44.008Z,21.72
2018-03-30T11:38:44.034Z,21.99
2018-03-30T11:39:43.807Z,22.07
2018-03-30T11:40:44.344Z,21.93
2018-03-30T11:41:44.369Z,22.13
2018-03-30T11:42:44.144Z,22.43
2018-03-30T11:43:44.429Z,22.62
2018-03-30T11:44:44.645Z,22.83
2018-03-30T11:45:44.486Z,22.85
2018-03-30T11:46:44.514Z,22.94
2018-03-30T11:47:44.599Z,23.15
2018-03-30T11:48:44.569Z,23.34
2018-03-30T11:49:44.343Z,23.63
2018-03-30T11:50:44.629Z,23.63
2018-03-30T11:51:44.401Z,23.25
2018-03-30T11:52:44.798Z,22.87
2018-03-30T11:53:44.768Z,22.8
2018-03-30T11:54:44.500Z,22.87
2018-03-30T11:55:44.517Z,23.09
2018-03-30T11:56:44.545Z,23.17
2018-03-30T11:57:44.825Z,23.37
2018-03-30T11:58:44.855Z,23.28
2018-03-30T11:59:44.633Z,23.23
2018-03-30T12:00:44.924Z,23.03
2018-03-30T12:01:44.944Z,22.68
2018-03-30T12:02:44.775Z,22.54
2018-03-30T12:03:44.489Z,22.5
2018-03-30T12:04:45.041Z,22.29
2018-03-30T12:05:44.821Z,22.2
2018-03-30T12:06:45.083Z,21.92
2018-03-30T12:07:45.116Z,21.91
2018-03-30T12:08:45.136Z,21.79
2018-03-30T12:09:45.226Z,21.99
2018-03-30T12:10:44.941Z,21.93
2018-03-30T12:11:45.222Z,21.93
2018-03-30T12:12:44.995Z,21.79
2018-03-30T12:13:45.036Z,21.76
2018-03-30T12:14:45.316Z,21.64
2018-03-30T12:15:45.340Z,21.29
2018-03-30T12:16:45.111Z,21.29
2018-03-30T12:17:45.447Z,21.51
2018-03-30T12:18:45.428Z,21.52
2018-03-30T12:19:45.201Z,22.07
2018-03-30T12:20:44.966Z,22.35
2018-03-30T12:21:45.254Z,22.47
2018-03-30T12:22:45.274Z,22.87
2018-03-30T12:23:45.558Z,22.88
2018-03-30T12:24:45.605Z,22.78
2018-03-30T12:25:45.614Z,22.87
2018-03-30T12:26:45.140Z,23.25
2018-03-30T12:27:45.428Z,23.68
2018-03-30T12:28:45.708Z,24.26
2018-03-30T12:29:45.728Z,24.74
2018-03-30T12:30:45.520Z,24.91
2018-03-30T12:31:45.531Z,25.08
2018-03-30T12:32:45.674Z,25.36
2018-03-30T12:33:45.845Z,24.99
2018-03-30T12:34:45.865Z,24.53
2018-03-30T12:35:45.894Z,24.18
2018-03-30T12:36:45.930Z,24.28
2018-03-30T12:37:45.462Z,24.32
2018-03-30T12:38:45.488Z,24.51
2018-03-30T12:39:45.771Z,24.43
2018-03-30T12:40:46.066Z,24.16
2018-03-30T12:41:46.134Z,23.54
2018-03-30T12:42:45.863Z,23.21
2018-03-30T12:43:46.148Z,22.55
2018-03-30T12:44:46.169Z,22.29
2018-03-30T12:45:46.211Z,21.98
2018-03-30T12:46:45.980Z,22.04
2018-03-30T12:47:46.306Z,22.17
2018-03-30T12:48:46.040Z,22.06
2018-03-30T12:49:45.815Z,22.04
2018-03-30T12:50:45.840Z,21.79
2018-03-30T12:51:46.125Z,21.76
2018-03-30T12:52:46.410Z,21.69
2018-03-30T12:53:46.182Z,21.54
2018-03-30T12:54:46.205Z,21.72
2018-03-30T12:55:46.496Z,21.67
2018-03-30T12:56:46.519Z,22.28
2018-03-30T12:57:46.393Z,22.75
2018-03-30T12:58:46.323Z,23.23
2018-03-30T12:59:46.601Z,23.71
2018-03-30T13:00:46.377Z,24.28
2018-03-30T13:01:46.153Z,24.76
2018-03-30T13:02:46.498Z,24.88
2018-03-30T13:03:46.723Z,25.29
2018-03-30T13:04:46.494Z,25.32
2018-03-30T13:05:46.269Z,25.68
2018-03-30T13:06:46.804Z,25.68
2018-03-30T13:07:46.581Z,25.5
2018-03-30T13:08:46.869Z,25.8
2018-03-30T13:09:46.895Z,26.21
2018-03-30T13:10:46.928Z,26.77